Time;durP1;ratioP1;P1;durP2;ratioP2;P2;SDS_P1;SDS_P2;PMS_P1;PMS_P2;Temp;Humidity;BMP_temperature;BMP_pressure;BME280_temperature;BME280_humidity;BME280_pressure;Samples;Min_cycle;Max_cycle;Signal;HPM_P1;HPM_P2
2023/05/09 00:00:53;;;;;;;1999.90;999.90;;;17.10;99.90;;;;;;5052433;28;20357;-72
2023/05/09 00:03:18;;;;;;;1999.90;999.90;;;17.20;99.90;;;;;;5052537;28;20169;-72
2023/05/09 00:05:45;;;;;;;1999.90;999.90;;;17.10;99.90;;;;;;5052555;28;20607;-72
2023/05/09 00:08:10;;;;;;;1999.90;999.90;;;17.10;99.90;;;;;;5052655;28;20183;-72
2023/05/09 00:10:36;;;;;;;1999.90;999.90;;;17.00;99.90;;;;;;5052496;28;20922;-72
2023/05/09 00:13:01;;;;;;;1999.90;999.90;;;17.00;99.90;;;;;;5034270;28;20614;-72
2023/05/09 00:15:27;;;;;;;1999.90;999.90;;;17.10;99.90;;;;;;5052164;28;20207;-72
2023/05/09 00:17:53;;;;;;;1999.90;999.90;;;17.10;99.90;;;;;;5052374;28;20175;-72
2023/05/09 00:20:19;;;;;;;1999.90;999.90;;;17.10;99.90;;;;;;5052355;28;20203;-72
2023/05/09 00:22:45;;;;;;;1999.90;999.90;;;17.10;99.90;;;;;;5052252;28;20676;-72
2023/05/09 00:25:11;;;;;;;1999.90;999.90;;;17.10;99.90;;;;;;5052139;28;20509;-72
2023/05/09 00:27:37;;;;;;;1999.90;999.90;;;17.10;99.90;;;;;;5052266;28;20166;-72
2023/05/09 00:30:03;;;;;;;1999.90;999.90;;;17.20;99.90;;;;;;5052185;28;20437;-72
2023/05/09 00:32:29;;;;;;;1999.90;999.90;;;17.10;99.90;;;;;;5051846;28;20408;-72
2023/05/09 00:34:55;;;;;;;1999.90;999.90;;;17.10;99.90;;;;;;5052011;28;20477;-72
2023/05/09 00:37:20;;;;;;;1999.90;999.90;;;17.10;99.90;;;;;;5052172;28;20201;-72
2023/05/09 00:39:47;;;;;;;1999.90;999.90;;;17.20;99.90;;;;;;5052043;28;20160;-72
2023/05/09 00:42:13;;;;;;;1999.90;999.90;;;17.30;99.90;;;;;;5050977;28;20171;-72
2023/05/09 00:44:38;;;;;;;1999.90;999.90;;;17.30;99.90;;;;;;5051748;28;20417;-72
2023/05/09 00:47:05;;;;;;;1999.90;999.90;;;17.40;99.90;;;;;;5051873;28;20438;-72
2023/05/09 00:49:31;;;;;;;1999.90;999.90;;;17.40;99.90;;;;;;5052009;28;20235;-71
2023/05/09 00:51:57;;;;;;;1999.90;999.90;;;17.50;99.90;;;;;;5051643;28;20409;-71
2023/05/09 00:54:23;;;;;;;1999.90;999.90;;;17.50;99.90;;;;;;5051775;28;20426;-72
2023/05/09 00:56:50;;;;;;;1999.90;999.90;;;17.50;99.90;;;;;;5051813;28;20499;-72
2023/05/09 00:59:16;;;;;;;1999.90;999.90;;;17.40;99.90;;;;;;5051748;28;20174;-72
2023/05/09 01:01:42;;;;;;;1999.90;999.90;;;17.30;99.90;;;;;;5051381;28;20982;-72
2023/05/09 01:04:08;;;;;;;1999.90;999.90;;;17.30;99.90;;;;;;5051673;28;20518;-72
2023/05/09 01:06:51;;;;;;;1999.90;999.90;;;17.30;99.90;;;;;;5051718;28;20189;-71
2023/05/09 01:09:40;;;;;;;1999.90;999.90;;;17.20;99.90;;;;;;5051735;28;20697;-72
2023/05/09 01:12:33;;;;;;;1999.90;999.90;;;17.10;99.90;;;;;;5051394;28;20442;-72
2023/05/09 01:15:10;;;;;;;1999.90;999.90;;;17.00;99.90;;;;;;5041534;28;20639;-72
2023/05/09 01:17:42;;;;;;;1999.90;999.90;;;16.90;99.90;;;;;;5051482;28;20463;-72
2023/05/09 01:20:19;;;;;;;1999.90;999.90;;;16.90;99.90;;;;;;5051606;28;20413;-72
2023/05/09 01:22:59;;;;;;;1999.90;999.90;;;16.90;99.90;;;;;;5051280;28;20410;-72
2023/05/09 01:25:53;;;;;;;1999.90;999.90;;;16.90;99.90;;;;;;5051498;28;20418;-72
2023/05/09 01:28:46;;;;;;;1999.90;999.90;;;16.90;99.90;;;;;;5051542;28;20403;-71
2023/05/09 01:31:13;;;;;;;1999.90;999.90;;;16.90;99.90;;;;;;5051193;28;20421;-72
2023/05/09 01:33:41;;;;;;;1999.90;999.90;;;16.80;99.90;;;;;;5051425;28;20412;-72
2023/05/09 01:36:15;;;;;;;1999.90;999.90;;;16.90;99.90;;;;;;5051329;28;20453;-72
2023/05/09 01:38:42;;;;;;;1999.90;999.90;;;16.80;99.90;;;;;;5051532;28;20842;-72
2023/05/09 01:41:11;;;;;;;1999.90;999.90;;;16.70;99.90;;;;;;5051084;28;20410;-72
2023/05/09 01:43:39;;;;;;;1999.90;999.90;;;16.70;99.90;;;;;;5051323;28;20409;-72
2023/05/09 01:46:05;;;;;;;1999.90;999.90;;;16.70;99.90;;;;;;5051290;28;20437;-72
2023/05/09 01:48:35;;;;;;;1999.90;999.90;;;16.70;99.90;;;;;;5051359;28;20460;-72
2023/05/09 01:51:02;;;;;;;1999.90;999.90;;;16.60;99.90;;;;;;5050981;28;20982;-72
2023/05/09 01:53:28;;;;;;;1999.90;999.90;;;16.60;99.90;;;;;;5051488;28;20421;-72
2023/05/09 01:55:57;;;;;;;1999.90;999.90;;;16.60;99.90;;;;;;5054804;28;20508;-72
2023/05/09 01:58:24;;;;;;;1999.90;999.90;;;16.70;99.90;;;;;;5054979;28;20404;-72
2023/05/09 02:00:50;;;;;;;1999.90;999.90;;;16.60;99.90;;;;;;5054943;28;20406;-72
2023/05/09 02:03:17;;;;;;;1999.90;999.90;;;16.60;99.90;;;;;;5054729;28;20456;-72
2023/05/09 02:05:43;;;;;;;1999.90;999.90;;;16.60;99.90;;;;;;5054743;28;20443;-72
2023/05/09 02:08:10;;;;;;;1999.90;999.90;;;16.60;99.90;;;;;;5054800;28;20455;-72
2023/05/09 02:10:37;;;;;;;1999.90;999.90;;;16.60;99.90;;;;;;5054656;28;20770;-72
2023/05/09 02:13:03;;;;;;;1999.90;999.90;;;16.60;99.90;;;;;;5054459;28;20771;-72
2023/05/09 02:15:29;;;;;;;1999.90;999.90;;;16.60;99.90;;;;;;5054383;28;20456;-72
2023/05/09 02:17:54;;;;;;;1999.90;999.90;;;16.50;99.90;;;;;;5054684;28;20408;-72
2023/05/09 02:20:20;;;;;;;1999.90;999.90;;;16.50;99.90;;;;;;5054701;28;20427;-71
2023/05/09 02:22:46;;;;;;;1999.90;999.90;;;16.50;99.90;;;;;;5054286;28;20547;-72
2023/05/09 02:25:14;;;;;;;1999.90;999.90;;;16.40;99.90;;;;;;5054366;28;20191;-72
2023/05/09 02:27:41;;;;;;;1999.90;999.90;;;16.50;99.90;;;;;;5054574;28;20477;-72
2023/05/09 02:30:10;;;;;;;1999.90;999.90;;;16.50;99.90;;;;;;5036614;28;20427;-71
2023/05/09 02:32:38;;;;;;;1999.90;999.90;;;16.60;99.90;;;;;;5054012;28;20413;-71
2023/05/09 02:35:06;;;;;;;1999.90;999.90;;;16.50;99.90;;;;;;5054267;28;20430;-71
2023/05/09 02:37:32;;;;;;;1999.90;999.90;;;16.50;99.90;;;;;;5054081;28;20445;-71
2023/05/09 02:39:58;;;;;;;1999.90;999.90;;;16.60;99.90;;;;;;5054234;28;20467;-71
2023/05/09 02:42:25;;;;;;;1999.90;999.90;;;16.60;99.90;;;;;;5053845;28;20888;-72
2023/05/09 02:44:53;;;;;;;1999.90;999.90;;;16.60;99.90;;;;;;5054215;28;20183;-72
2023/05/09 02:47:20;;;;;;;1999.90;999.90;;;16.70;99.90;;;;;;5054430;28;21077;-71
2023/05/09 02:49:46;;;;;;;1999.90;999.90;;;16.70;99.90;;;;;;5054045;28;20403;-71
2023/05/09 02:52:12;;;;;;;1999.90;999.90;;;16.80;99.90;;;;;;5053526;28;20438;-71
2023/05/09 02:54:38;;;;;;;1999.90;999.90;;;16.90;99.90;;;;;;5053981;28;20457;-71
2023/05/09 02:57:04;;;;;;;1999.90;999.90;;;16.90;99.90;;;;;;5053813;28;20877;-71
2023/05/09 02:59:30;;;;;;;1999.90;999.90;;;16.90;99.90;;;;;;5054002;28;20171;-71
2023/05/09 03:01:56;;;;;;;1999.90;999.90;;;16.80;99.90;;;;;;5053459;28;20402;-71
2023/05/09 03:04:22;;;;;;;1999.90;999.90;;;16.80;99.90;;;;;;5053715;28;20437;-72
2023/05/09 03:06:48;;;;;;;1999.90;999.90;;;16.90;99.90;;;;;;5052651;28;20413;-72
2023/05/09 03:09:14;;;;;;;1999.90;999.90;;;16.90;99.90;;;;;;5054076;28;20179;-72
2023/05/09 03:11:39;;;;;;;1999.90;999.90;;;16.90;99.90;;;;;;5053335;28;20411;-72
2023/05/09 03:14:07;;;;;;;1999.90;999.90;;;16.90;99.90;;;;;;5053516;28;20432;-72
2023/05/09 03:16:33;;;;;;;1999.90;999.90;;;16.90;99.90;;;;;;5053518;28;20649;-72
2023/05/09 03:18:59;;;;;;;1999.90;999.90;;;16.90;99.90;;;;;;5053506;28;20410;-72
2023/05/09 03:21:24;;;;;;;1999.90;999.90;;;16.90;99.90;;;;;;5053111;28;20429;-72
2023/05/09 03:23:50;;;;;;;1999.90;999.90;;;17.00;99.90;;;;;;5053329;28;20171;-72
2023/05/09 03:26:15;;;;;;;1999.90;999.90;;;16.90;99.90;;;;;;5053306;28;20699;-72
2023/05/09 03:28:41;;;;;;;1999.90;999.90;;;16.90;99.90;;;;;;5053271;28;20188;-72
2023/05/09 03:31:06;;;;;;;1999.90;999.90;;;16.90;99.90;;;;;;5052962;28;20698;-71
2023/05/09 03:33:32;;;;;;;1999.90;999.90;;;16.90;99.90;;;;;;5053221;28;20172;-72
2023/05/09 03:35:58;;;;;;;1999.90;999.90;;;16.90;99.90;;;;;;5053021;28;20201;-72
2023/05/09 03:38:23;;;;;;;1999.90;999.90;;;16.90;99.90;;;;;;5053140;28;20195;-72
2023/05/09 03:40:58;;;;;;;1999.90;999.90;;;16.90;99.90;;;;;;5052951;28;20656;-71
2023/05/09 03:43:24;;;;;;;1999.90;999.90;;;16.90;99.90;;;;;;5053007;28;20166;-72
2023/05/09 03:45:49;;;;;;;1999.90;999.90;;;16.90;99.90;;;;;;5052870;28;20427;-71
2023/05/09 03:48:15;;;;;;;1999.90;999.90;;;16.80;99.90;;;;;;5053004;28;20179;-71
2023/05/09 03:50:40;;;;;;;1999.90;999.90;;;16.80;99.90;;;;;;5052838;28;20273;-72
2023/05/09 03:53:06;;;;;;;1999.90;999.90;;;16.70;99.90;;;;;;5041852;28;20232;-72
2023/05/09 03:55:32;;;;;;;1999.90;999.90;;;16.70;99.90;;;;;;5032530;28;20285;-72
2023/05/09 03:57:57;;;;;;;1999.90;999.90;;;16.70;99.90;;;;;;5032791;28;20296;-72
2023/05/09 04:00:25;;;;;;;1999.90;999.90;;;16.70;99.90;;;;;;5032667;28;20182;-72
2023/05/09 04:02:51;;;;;;;1999.90;999.90;;;16.70;99.90;;;;;;5032467;28;20176;-72
2023/05/09 04:05:17;;;;;;;1999.90;999.90;;;16.70;99.90;;;;;;5032528;28;20790;-72
2023/05/09 04:07:42;;;;;;;1999.90;999.90;;;16.80;99.90;;;;;;5032644;28;20424;-72
2023/05/09 04:10:08;;;;;;;1999.90;999.90;;;16.80;99.90;;;;;;5032607;28;20602;-72
2023/05/09 04:12:34;;;;;;;1999.90;999.90;;;16.80;99.90;;;;;;5032353;28;20551;-72
2023/05/09 04:15:00;;;;;;;1999.90;999.90;;;16.80;99.90;;;;;;5032311;28;20457;-71
2023/05/09 04:17:25;;;;;;;1999.90;999.90;;;16.90;99.90;;;;;;5032225;28;20203;-72
2023/05/09 04:19:52;;;;;;;1999.90;999.90;;;16.80;99.90;;;;;;5032557;28;20243;-72
2023/05/09 04:22:18;;;;;;;1999.90;999.90;;;16.80;99.90;;;;;;5032142;28;20412;-72
2023/05/09 04:24:43;;;;;;;1999.90;999.90;;;16.90;99.90;;;;;;5032214;28;20191;-72
2023/05/09 04:27:09;;;;;;;1999.90;999.90;;;16.90;99.90;;;;;;5032300;28;20187;-72
2023/05/09 04:29:35;;;;;;;1999.90;999.90;;;16.90;99.90;;;;;;5032388;28;20197;-72
2023/05/09 04:32:01;;;;;;;1999.90;999.90;;;16.80;99.90;;;;;;5031922;28;20189;-72
2023/05/09 04:34:28;;;;;;;1999.90;999.90;;;16.80;99.90;;;;;;5032009;28;20420;-71
2023/05/09 04:36:54;;;;;;;1999.90;999.90;;;16.70;99.90;;;;;;5032038;28;20546;-72
2023/05/09 04:39:19;;;;;;;1999.90;999.90;;;16.70;99.90;;;;;;5032083;28;20440;-72
2023/05/09 04:41:46;;;;;;;1999.90;999.90;;;16.70;99.90;;;;;;5031809;28;20674;-72
2023/05/09 04:44:12;;;;;;;1999.90;999.90;;;16.70;99.90;;;;;;5032001;28;20437;-72
2023/05/09 04:46:39;;;;;;;1999.90;999.90;;;16.70;99.90;;;;;;5032029;28;20405;-72
2023/05/09 04:49:04;;;;;;;1999.90;999.90;;;16.70;99.90;;;;;;5031988;28;20414;-72
2023/05/09 04:51:30;;;;;;;1999.90;999.90;;;16.60;99.90;;;;;;5031618;28;20412;-72
2023/05/09 04:53:55;;;;;;;1999.90;999.90;;;16.70;99.90;;;;;;5031800;28;20227;-72
2023/05/09 04:56:21;;;;;;;1999.90;999.90;;;16.60;99.90;;;;;;5031930;28;20205;-72
2023/05/09 04:58:47;;;;;;;1999.90;999.90;;;16.70;99.90;;;;;;5031914;28;20196;-72
2023/05/09 05:01:12;;;;;;;1999.90;999.90;;;16.70;99.90;;;;;;5031551;28;20165;-71
2023/05/09 05:03:38;;;;;;;1999.90;999.90;;;16.80;99.90;;;;;;5031857;28;20250;-72
2023/05/09 05:06:03;;;;;;;1999.90;999.90;;;16.80;99.90;;;;;;5031775;28;20189;-72
2023/05/09 05:08:29;;;;;;;1999.90;999.90;;;16.90;99.90;;;;;;5031874;28;20265;-72
2023/05/09 05:10:55;;;;;;;1999.90;999.90;;;16.90;99.90;;;;;;5031638;28;20211;-72
2023/05/09 05:13:20;;;;;;;1999.90;999.90;;;17.00;99.90;;;;;;5031665;28;20175;-72
2023/05/09 05:15:46;;;;;;;1999.90;999.90;;;17.10;99.90;;;;;;5031413;28;20223;-72
2023/05/09 05:18:11;;;;;;;1999.90;999.90;;;17.20;99.90;;;;;;5031702;28;20161;-72
2023/05/09 05:20:40;;;;;;;1999.90;999.90;;;17.30;99.90;;;;;;5031675;28;20179;-72
2023/05/09 05:23:06;;;;;;;1999.90;999.90;;;17.30;99.90;;;;;;5031355;28;20182;-72
2023/05/09 05:25:31;;;;;;;1999.90;999.90;;;17.50;99.90;;;;;;5031604;28;20427;-72
2023/05/09 05:27:57;;;;;;;1999.90;999.90;;;17.50;99.90;;;;;;5031697;28;20270;-72
2023/05/09 05:30:22;;;;;;;1999.90;999.90;;;17.50;99.90;;;;;;5034911;28;20190;-72
2023/05/09 05:32:48;;;;;;;1999.90;999.90;;;17.70;99.90;;;;;;5035299;28;20216;-72
2023/05/09 05:35:14;;;;;;;1999.90;999.90;;;17.70;99.90;;;;;;5035521;28;20192;-72
2023/05/09 05:37:40;;;;;;;1999.90;999.90;;;17.90;99.90;;;;;;5035498;28;20205;-72
2023/05/09 05:40:06;;;;;;;1999.90;999.90;;;18.10;99.90;;;;;;5035477;28;20167;-72
2023/05/09 05:42:33;;;;;;;1999.90;999.90;;;18.20;99.90;;;;;;5035133;28;20433;-72
2023/05/09 05:45:03;;;;;;;1999.90;999.90;;;18.30;99.90;;;;;;5035192;28;20437;-72
2023/05/09 05:47:33;;;;;;;1999.90;999.90;;;18.30;99.90;;;;;;5035363;28;20417;-72
2023/05/09 05:49:59;;;;;;;1999.90;999.90;;;18.40;99.90;;;;;;5035358;28;20975;-72
2023/05/09 05:52:26;;;;;;;1999.90;999.90;;;18.40;99.90;;;;;;5034799;28;20903;-72
2023/05/09 05:54:55;;;;;;;1999.90;999.90;;;18.40;99.90;;;;;;5035075;28;20432;-72
2023/05/09 05:57:21;;;;;;;1999.90;999.90;;;18.40;99.90;;;;;;5035087;28;20572;-72
2023/05/09 05:59:47;;;;;;;1999.90;999.90;;;18.40;99.90;;;;;;5035005;28;20411;-72
2023/05/09 06:02:13;;;;;;;1999.90;999.90;;;18.40;99.90;;;;;;5034749;28;20416;-72
2023/05/09 06:04:39;;;;;;;1999.90;999.90;;;18.30;99.90;;;;;;5034866;28;20966;-72
2023/05/09 06:07:05;;;;;;;1999.90;999.90;;;18.20;99.90;;;;;;5034894;28;20784;-72
2023/05/09 06:09:31;;;;;;;1999.90;999.90;;;18.20;99.90;;;;;;5034801;28;20439;-72
2023/05/09 06:11:56;;;;;;;1999.90;999.90;;;18.20;99.90;;;;;;5034611;28;20174;-72
2023/05/09 06:14:22;;;;;;;1999.90;999.90;;;18.20;99.90;;;;;;5034545;28;20691;-72
2023/05/09 06:16:47;;;;;;;1999.90;999.90;;;18.20;99.90;;;;;;5034911;28;20214;-71
2023/05/09 06:19:13;;;;;;;1999.90;999.90;;;18.20;99.90;;;;;;5034702;28;20654;-72
2023/05/09 06:21:39;;;;;;;1999.90;999.90;;;18.30;99.90;;;;;;5034336;28;20278;-72
2023/05/09 06:24:05;;;;;;;1999.90;999.90;;;18.20;99.90;;;;;;5034629;28;20218;-72
2023/05/09 06:26:30;;;;;;;1999.90;999.90;;;18.20;99.90;;;;;;5034631;28;20180;-72
2023/05/09 06:28:56;;;;;;;1999.90;999.90;;;18.20;99.90;;;;;;5034478;28;20963;-71
2023/05/09 06:31:21;;;;;;;1999.90;999.90;;;18.20;99.90;;;;;;5034208;28;20171;-71
2023/05/09 06:33:47;;;;;;;1999.90;999.90;;;18.20;99.90;;;;;;5034356;28;20205;-72
2023/05/09 06:36:12;;;;;;;1999.90;999.90;;;18.20;99.90;;;;;;5034368;28;20195;-71
2023/05/09 06:38:38;;;;;;;1999.90;999.90;;;18.20;99.90;;;;;;5034321;28;20164;-72
2023/05/09 06:41:04;;;;;;;1999.90;999.90;;;18.10;99.90;;;;;;5032652;28;20171;-72
2023/05/09 06:43:30;;;;;;;1999.90;999.90;;;18.20;99.90;;;;;;5034085;28;20168;-72
2023/05/09 06:45:55;;;;;;;1999.90;999.90;;;18.20;99.90;;;;;;5034083;28;20425;-72
2023/05/09 06:48:22;;;;;;;1999.90;999.90;;;18.20;99.90;;;;;;5034218;28;20169;-72
2023/05/09 06:50:48;;;;;;;1999.90;999.90;;;18.30;99.90;;;;;;5034120;28;20191;-72
2023/05/09 06:53:14;;;;;;;1999.90;999.90;;;18.30;99.90;;;;;;5033804;28;20824;-71
2023/05/09 06:55:40;;;;;;;1999.90;999.90;;;18.40;99.90;;;;;;5033830;28;20485;-72
2023/05/09 06:58:05;;;;;;;1999.90;999.90;;;18.40;99.90;;;;;;5033819;28;20251;-72
2023/05/09 07:00:31;;;;;;;1999.90;999.90;;;18.40;99.90;;;;;;5033961;28;20191;-72
2023/05/09 07:02:56;;;;;;;1999.90;999.90;;;18.50;99.90;;;;;;5033514;28;20221;-74
2023/05/09 07:05:22;;;;;;;1999.90;999.90;;;18.50;99.90;;;;;;5033705;28;20199;-74
2023/05/09 07:07:47;;;;;;;1999.90;999.90;;;18.50;99.90;;;;;;5033788;28;20171;-74
2023/05/09 07:10:13;;;;;;;1999.90;999.90;;;18.50;99.90;;;;;;5033735;28;20644;-72
2023/05/09 07:12:39;;;;;;;1999.90;999.90;;;18.50;99.90;;;;;;5033373;28;20254;-72
2023/05/09 07:15:05;;;;;;;1999.90;999.90;;;18.60;99.90;;;;;;5033506;28;20204;-72
2023/05/09 07:17:31;;;;;;;1999.90;999.90;;;18.60;99.90;;;;;;5033628;28;20453;-72
2023/05/09 07:19:56;;;;;;;1999.90;999.90;;;18.60;99.90;;;;;;5033577;28;20414;-74
2023/05/09 07:22:22;;;;;;;1999.90;999.90;;;18.60;99.90;;;;;;5033348;28;20184;-72
2023/05/09 07:24:48;;;;;;;1999.90;999.90;;;18.60;99.90;;;;;;5033337;28;20195;-72
2023/05/09 07:27:13;;;;;;;1999.90;999.90;;;18.60;99.90;;;;;;5033440;28;20217;-72
2023/05/09 07:29:39;;;;;;;1999.90;999.90;;;18.60;99.90;;;;;;5033379;28;20168;-72
2023/05/09 07:32:05;;;;;;;1999.90;999.90;;;18.70;99.90;;;;;;5033045;28;20173;-72
2023/05/09 07:34:30;;;;;;;1999.90;999.90;;;18.80;99.90;;;;;;5033308;28;20195;-74
2023/05/09 07:36:57;;;;;;;1999.90;999.90;;;18.80;99.90;;;;;;5033197;28;20195;-72
2023/05/09 07:39:23;;;;;;;1999.90;999.90;;;18.90;99.90;;;;;;5033214;28;20656;-72
2023/05/09 07:41:48;;;;;;;1999.90;999.90;;;19.00;99.90;;;;;;5032763;28;20450;-72
2023/05/09 07:44:14;;;;;;;1999.90;999.90;;;19.10;99.90;;;;;;5033109;28;20188;-72
2023/05/09 07:46:40;;;;;;;1999.90;999.90;;;19.30;99.90;;;;;;5032905;28;20176;-72
2023/05/09 07:49:06;;;;;;;1999.90;999.90;;;19.40;99.90;;;;;;5032967;28;20981;-72
2023/05/09 07:51:32;;;;;;;1999.90;999.90;;;19.50;99.90;;;;;;5032244;28;20493;-72
2023/05/09 07:53:58;;;;;;;1999.90;999.90;;;19.50;99.90;;;;;;5032880;28;20455;-72
2023/05/09 07:56:25;;;;;;;1999.90;999.90;;;19.60;99.90;;;;;;5032661;28;20624;-72
2023/05/09 07:58:51;;;;;;;1999.90;999.90;;;19.70;99.90;;;;;;5033018;28;20259;-72
2023/05/09 08:01:16;;;;;;;1999.90;999.90;;;19.70;99.90;;;;;;5032838;28;20530;-72
2023/05/09 08:03:42;;;;;;;1999.90;999.90;;;19.70;99.90;;;;;;5032512;28;20181;-71
2023/05/09 08:06:08;;;;;;;1999.90;999.90;;;19.80;99.90;;;;;;5032461;28;20627;-71
2023/05/09 08:08:34;;;;;;;1999.90;999.90;;;19.90;99.90;;;;;;5032686;28;20251;-72
2023/05/09 08:11:00;;;;;;;1999.90;999.90;;;20.10;99.90;;;;;;5032207;28;20863;-72
2023/05/09 08:13:25;;;;;;;1999.90;999.90;;;20.10;99.90;;;;;;5032604;28;20408;-72
2023/05/09 08:15:51;;;;;;;1999.90;999.90;;;20.30;99.90;;;;;;5032124;28;20226;-72
2023/05/09 08:18:16;;;;;;;1999.90;999.90;;;20.50;99.90;;;;;;5030061;28;20174;-69
2023/05/09 08:20:42;;;;;;;1999.90;999.90;;;20.70;99.90;;;;;;5028266;28;20202;-70
2023/05/09 08:23:08;;;;;;;1999.90;999.90;;;20.90;99.90;;;;;;5027462;28;20175;-69
2023/05/09 08:25:34;;;;;;;1999.90;999.90;;;20.90;99.90;;;;;;5028364;28;20277;-70
2023/05/09 08:27:59;;;;;;;1999.90;999.90;;;21.00;99.90;;;;;;5027859;28;20413;-70
2023/05/09 08:30:28;;;;;;;1999.90;999.90;;;21.00;99.90;;;;;;5027767;28;20173;-71
2023/05/09 08:32:54;;;;;;;1999.90;999.90;;;21.10;99.90;;;;;;5028223;28;20176;-70
2023/05/09 08:35:19;;;;;;;1999.90;999.90;;;21.30;99.90;;;;;;5027584;28;20438;-70
2023/05/09 08:37:46;;;;;;;1999.90;999.90;;;21.50;99.90;;;;;;5027642;28;20464;-70
2023/05/09 08:40:12;;;;;;;1999.90;999.90;;;21.60;99.90;;;;;;5028427;28;20170;-70
2023/05/09 08:42:39;;;;;;;1999.90;999.90;;;21.70;99.90;;;;;;5027242;28;20425;-71
2023/05/09 08:45:15;;;;;;;1999.90;999.90;;;21.70;99.90;;;;;;5027551;28;20502;-69
2023/05/09 08:47:41;;;;;;;1999.90;999.90;;;21.80;99.90;;;;;;5027808;28;20562;-71
2023/05/09 08:50:08;;;;;;;1999.90;999.90;;;21.70;99.90;;;;;;5028096;28;20452;-71
2023/05/09 08:52:34;;;;;;;1999.90;999.90;;;21.50;99.90;;;;;;5027090;28;20428;-71
2023/05/09 08:55:03;;;;;;;1999.90;999.90;;;21.50;99.90;;;;;;5027768;28;20885;-71
2023/05/09 08:57:32;;;;;;;1999.90;999.90;;;21.60;99.90;;;;;;5028122;28;20465;-71
2023/05/09 08:59:58;;;;;;;1999.90;999.90;;;21.70;99.90;;;;;;5027376;28;20417;-71
2023/05/09 09:02:24;;;;;;;1999.90;999.90;;;21.70;99.90;;;;;;5027143;28;20482;-70
2023/05/09 09:04:50;;;;;;;1999.90;999.90;;;21.70;99.90;;;;;;5027252;28;20631;-71
2023/05/09 09:07:17;;;;;;;1999.90;999.90;;;21.70;99.90;;;;;;5027198;28;20773;-70
2023/05/09 09:09:48;;;;;;;1999.90;999.90;;;21.70;99.90;;;;;;5027917;28;20284;-71
2023/05/09 09:12:15;;;;;;;1999.90;999.90;;;21.80;99.90;;;;;;5027856;28;20898;-71
2023/05/09 09:14:53;;;;;;;1999.90;999.90;;;22.00;99.90;;;;;;5027371;28;20978;-71
2023/05/09 09:17:27;;;;;;;1999.90;999.90;;;22.00;99.90;;;;;;5027494;28;20537;-71
2023/05/09 09:19:58;;;;;;;1999.90;999.90;;;22.10;99.90;;;;;;5027115;28;20393;-71
2023/05/09 09:22:31;;;;;;;1999.90;999.90;;;22.20;99.90;;;;;;5026715;28;20397;-71
2023/05/09 09:24:58;;;;;;;1999.90;999.90;;;22.30;99.90;;;;;;5027159;28;20517;-71
2023/05/09 09:27:24;;;;;;;1999.90;999.90;;;22.60;99.90;;;;;;5027882;28;20422;-71
2023/05/09 09:29:50;;;;;;;1999.90;999.90;;;22.70;99.90;;;;;;5027118;28;20405;-71
2023/05/09 09:32:17;;;;;;;1999.90;999.90;;;22.60;99.90;;;;;;5026697;28;20218;-70
2023/05/09 09:34:42;;;;;;;1999.90;999.90;;;22.50;99.90;;;;;;5027934;28;20730;-70
2023/05/09 09:37:08;;;;;;;1999.90;999.90;;;22.50;99.90;;;;;;5026999;28;20471;-71
2023/05/09 09:39:33;;;;;;;1999.90;999.90;;;22.60;99.90;;;;;;5027300;28;20206;-71
2023/05/09 09:42:10;;;;;;;1999.90;999.90;;;22.70;99.90;;;;;;5027270;28;20247;-71
2023/05/09 09:44:36;;;;;;;1999.90;999.90;;;22.90;99.90;;;;;;5027429;28;20944;-71
2023/05/09 09:47:02;;;;;;;1999.90;999.90;;;23.00;99.90;;;;;;5026782;28;20393;-71
2023/05/09 09:49:27;;;;;;;1999.90;999.90;;;23.10;99.90;;;;;;5027632;28;20246;-71
2023/05/09 09:51:55;;;;;;;1999.90;999.90;;;23.10;99.90;;;;;;5026842;28;21115;-71
2023/05/09 09:54:21;;;;;;;1999.90;999.90;;;23.10;99.90;;;;;;5026779;28;20199;-71
2023/05/09 09:56:49;;;;;;;1999.90;999.90;;;23.10;99.90;;;;;;5027502;28;20437;-71
2023/05/09 09:59:15;;;;;;;1999.90;999.90;;;23.10;99.90;;;;;;5027146;28;20179;-71
2023/05/09 10:02:05;;;;;;;1999.90;999.90;;;23.10;99.90;;;;;;5023792;28;20488;-71
2023/05/09 10:04:36;;;;;;;1999.90;999.90;;;23.10;99.90;;;;;;5027539;28;20439;-71
2023/05/09 10:07:03;;;;;;;1999.90;999.90;;;23.20;99.90;;;;;;5026900;28;20791;-71
2023/05/09 10:09:30;;;;;;;1999.90;999.90;;;23.40;99.90;;;;;;5026663;28;20761;-72
2023/05/09 10:12:00;;;;;;;1999.90;999.90;;;23.60;99.90;;;;;;5027265;28;20415;-71
2023/05/09 10:14:26;;;;;;;1999.90;999.90;;;23.60;99.90;;;;;;5027015;28;20456;-71
2023/05/09 10:16:58;;;;;;;1999.90;999.90;;;23.50;99.90;;;;;;5029553;28;20524;-71
2023/05/09 10:19:26;;;;;;;1999.90;999.90;;;23.60;99.90;;;;;;5030105;28;20382;-71
2023/05/09 10:21:54;;;;;;;1999.90;999.90;;;23.60;99.90;;;;;;5030616;28;20743;-71
2023/05/09 10:24:38;;;;;;;1999.90;999.90;;;23.60;99.90;;;;;;5029394;28;20556;-71
2023/05/09 10:27:08;;;;;;;1999.90;999.90;;;23.50;99.90;;;;;;5030742;28;20442;-71
2023/05/09 10:29:48;;;;;;;1999.90;999.90;;;23.40;99.90;;;;;;5029965;28;20395;-71
2023/05/09 10:32:40;;;;;;;1999.90;999.90;;;23.10;99.90;;;;;;5029217;28;20384;-71
2023/05/09 10:35:09;;;;;;;1999.90;999.90;;;23.10;99.90;;;;;;5029813;28;20522;-71
2023/05/09 10:37:35;;;;;;;1999.90;999.90;;;23.20;99.90;;;;;;5029836;28;20494;-71
2023/05/09 10:40:03;;;;;;;1999.90;999.90;;;23.40;99.90;;;;;;5029646;28;20406;-70
2023/05/09 10:42:30;;;;;;;1999.90;999.90;;;23.70;99.90;;;;;;5029196;28;20914;-71
2023/05/09 10:44:56;;;;;;;1999.90;999.90;;;23.90;99.90;;;;;;5029769;28;20449;-71
2023/05/09 10:47:26;;;;;;;1999.90;999.90;;;24.10;99.90;;;;;;5029284;28;20401;-71
2023/05/09 10:49:53;;;;;;;1999.90;999.90;;;24.20;99.90;;;;;;5029278;28;20765;-72
2023/05/09 10:52:21;;;;;;;1999.90;999.90;;;24.10;99.90;;;;;;5029296;28;20504;-71
2023/05/09 10:55:00;;;;;;;1999.90;999.90;;;24.10;99.90;;;;;;5029743;28;20442;-71
2023/05/09 10:57:28;;;;;;;1999.90;999.90;;;24.10;99.90;;;;;;5030013;28;20821;-71
2023/05/09 10:59:55;;;;;;;1999.90;999.90;;;24.00;99.90;;;;;;5028857;28;20446;-71
2023/05/09 11:02:27;;;;;;;1999.90;999.90;;;23.90;99.90;;;;;;5028971;28;20389;-71
2023/05/09 11:05:13;;;;;;;1999.90;999.90;;;23.70;99.90;;;;;;5029829;28;20506;-71
2023/05/09 11:07:39;;;;;;;1999.90;999.90;;;23.60;99.90;;;;;;5028271;28;20401;-71
2023/05/09 11:10:09;;;;;;;1999.90;999.90;;;23.70;99.90;;;;;;5029808;28;20469;-71
2023/05/09 11:12:56;;;;;;;1999.90;999.90;;;23.70;99.90;;;;;;5029111;28;20221;-71
2023/05/09 11:15:22;;;;;;;1999.90;999.90;;;23.70;99.90;;;;;;5028912;28;20561;-71
2023/05/09 11:18:03;;;;;;;1999.90;999.90;;;23.70;99.90;;;;;;5011435;28;20432;-71
2023/05/09 11:20:28;;;;;;;1999.90;999.90;;;23.70;99.90;;;;;;5029128;28;20411;-71
2023/05/09 11:22:57;;;;;;;1999.90;999.90;;;23.60;99.90;;;;;;5027887;28;20832;-71
2023/05/09 11:25:28;;;;;;;1999.90;999.90;;;23.50;99.90;;;;;;5029107;28;20184;-71
2023/05/09 11:27:59;;;;;;;1999.90;999.90;;;23.50;99.90;;;;;;5029233;28;20940;-71
2023/05/09 11:30:39;;;;;;;1999.90;999.90;;;23.50;99.90;;;;;;5029099;28;20402;-71
2023/05/09 11:33:05;;;;;;;1999.90;999.90;;;23.50;99.90;;;;;;5029328;28;20439;-71
2023/05/09 11:35:33;;;;;;;1999.90;999.90;;;23.60;99.90;;;;;;5028679;28;20419;-70
2023/05/09 11:38:06;;;;;;;1999.90;999.90;;;23.60;99.90;;;;;;5028309;28;20942;-71
2023/05/09 11:40:33;;;;;;;1999.90;999.90;;;23.50;99.90;;;;;;5029227;28;20447;-71
2023/05/09 11:43:00;;;;;;;1999.90;999.90;;;23.40;99.90;;;;;;5028941;28;20389;-71
2023/05/09 11:45:30;;;;;;;1999.90;999.90;;;23.30;99.90;;;;;;5027889;28;20419;-71
2023/05/09 11:47:57;;;;;;;1999.90;999.90;;;23.20;99.90;;;;;;5028722;28;20736;-71
2023/05/09 11:50:23;;;;;;;1999.90;999.90;;;23.10;99.90;;;;;;5029302;28;20418;-71
2023/05/09 11:52:49;;;;;;;1999.90;999.90;;;23.10;99.90;;;;;;5027960;28;20427;-72
2023/05/09 11:55:17;;;;;;;1999.90;999.90;;;23.10;99.90;;;;;;5028526;28;20204;-71
2023/05/09 11:57:52;;;;;;;1999.90;999.90;;;23.10;99.90;;;;;;5029095;28;21217;-71
2023/05/09 12:00:20;;;;;;;1999.90;999.90;;;23.10;99.90;;;;;;5028560;28;20393;-71